sensor_id;sensor_type;location;lat;lon;timestamp;temperature;humidity
63051;SHT30;49136;47.416;19.402;2023-09-30T00:00:00;11.08;97.51
63051;SHT30;49136;47.416;19.402;2023-09-30T00:02:26;11.07;97.37
63051;SHT30;49136;47.416;19.402;2023-09-30T00:04:52;11.09;97.05
63051;SHT30;49136;47.416;19.402;2023-09-30T00:07:18;11.08;97.27
63051;SHT30;49136;47.416;19.402;2023-09-30T00:09:43;11.07;97.64
63051;SHT30;49136;47.416;19.402;2023-09-30T00:12:09;11.09;97.52
63051;SHT30;49136;47.416;19.402;2023-09-30T00:14:34;11.09;97.52
63051;SHT30;49136;47.416;19.402;2023-09-30T00:17:01;11.04;97.77
63051;SHT30;49136;47.416;19.402;2023-09-30T00:19:26;11.01;97.95
63051;SHT30;49136;47.416;19.402;2023-09-30T00:21:52;11.02;97.82
63051;SHT30;49136;47.416;19.402;2023-09-30T00:24:17;11.02;97.84
63051;SHT30;49136;47.416;19.402;2023-09-30T00:26:43;11.02;97.76
63051;SHT30;49136;47.416;19.402;2023-09-30T00:29:08;11.02;97.84
63051;SHT30;49136;47.416;19.402;2023-09-30T00:31:35;10.94;97.56
63051;SHT30;49136;47.416;19.402;2023-09-30T00:34:01;10.88;97.97
63051;SHT30;49136;47.416;19.402;2023-09-30T00:36:26;10.87;97.80
63051;SHT30;49136;47.416;19.402;2023-09-30T00:38:52;10.88;97.97
63051;SHT30;49136;47.416;19.402;2023-09-30T00:41:17;10.90;97.98
63051;SHT30;49136;47.416;19.402;2023-09-30T00:43:45;10.85;97.92
63051;SHT30;49136;47.416;19.402;2023-09-30T00:48:47;10.80;97.81
63051;SHT30;49136;47.416;19.402;2023-09-30T00:51:13;10.81;98.02
63051;SHT30;49136;47.416;19.402;2023-09-30T00:53:39;10.78;97.99
63051;SHT30;49136;47.416;19.402;2023-09-30T00:56:05;10.75;98.05
63051;SHT30;49136;47.416;19.402;2023-09-30T00:58:31;10.77;98.16
63051;SHT30;49136;47.416;19.402;2023-09-30T01:00:58;10.80;98.18
63051;SHT30;49136;47.416;19.402;2023-09-30T01:03:25;10.74;98.27
63051;SHT30;49136;47.416;19.402;2023-09-30T01:05:50;10.71;98.41
63051;SHT30;49136;47.416;19.402;2023-09-30T01:08:16;10.67;98.89
63051;SHT30;49136;47.416;19.402;2023-09-30T01:10:43;10.63;98.83
63051;SHT30;49136;47.416;19.402;2023-09-30T01:13:08;10.61;98.97
63051;SHT30;49136;47.416;19.402;2023-09-30T01:15:34;10.60;98.83
63051;SHT30;49136;47.416;19.402;2023-09-30T01:17:59;10.59;98.99
63051;SHT30;49136;47.416;19.402;2023-09-30T01:20:25;10.56;98.83
63051;SHT30;49136;47.416;19.402;2023-09-30T01:22:52;10.61;98.96
63051;SHT30;49136;47.416;19.402;2023-09-30T01:25:19;10.57;98.82
63051;SHT30;49136;47.416;19.402;2023-09-30T01:27:45;10.59;98.84
63051;SHT30;49136;47.416;19.402;2023-09-30T01:30:10;10.57;98.98
63051;SHT30;49136;47.416;19.402;2023-09-30T01:32:36;10.49;98.83
63051;SHT30;49136;47.416;19.402;2023-09-30T01:35:02;10.52;98.92
63051;SHT30;49136;47.416;19.402;2023-09-30T01:37:27;10.56;98.78
63051;SHT30;49136;47.416;19.402;2023-09-30T01:39:53;10.55;99.04
63051;SHT30;49136;47.416;19.402;2023-09-30T01:42:20;10.52;99.12
63051;SHT30;49136;47.416;19.402;2023-09-30T01:44:45;10.46;99.20
63051;SHT30;49136;47.416;19.402;2023-09-30T01:47:11;10.50;99.16
63051;SHT30;49136;47.416;19.402;2023-09-30T01:49:37;10.50;99.30
63051;SHT30;49136;47.416;19.402;2023-09-30T01:52:03;10.49;99.21
63051;SHT30;49136;47.416;19.402;2023-09-30T01:54:28;10.50;99.19
63051;SHT30;49136;47.416;19.402;2023-09-30T01:56:53;10.49;99.23
63051;SHT30;49136;47.416;19.402;2023-09-30T01:59:19;10.46;99.15
63051;SHT30;49136;47.416;19.402;2023-09-30T02:01:44;10.45;99.04
63051;SHT30;49136;47.416;19.402;2023-09-30T02:04:11;10.45;99.35
63051;SHT30;49136;47.416;19.402;2023-09-30T02:06:41;10.42;99.27
63051;SHT30;49136;47.416;19.402;2023-09-30T02:09:07;10.43;99.47
63051;SHT30;49136;47.416;19.402;2023-09-30T02:11:35;10.38;99.49
63051;SHT30;49136;47.416;19.402;2023-09-30T02:14:02;10.40;99.52
63051;SHT30;49136;47.416;19.402;2023-09-30T02:16:27;10.43;99.53
63051;SHT30;49136;47.416;19.402;2023-09-30T02:18:53;10.36;99.70
63051;SHT30;49136;47.416;19.402;2023-09-30T02:21:19;10.32;99.55
63051;SHT30;49136;47.416;19.402;2023-09-30T02:23:45;10.29;99.70
63051;SHT30;49136;47.416;19.402;2023-09-30T02:26:14;10.28;99.76
63051;SHT30;49136;47.416;19.402;2023-09-30T02:28:40;10.19;99.76
63051;SHT30;49136;47.416;19.402;2023-09-30T02:31:05;10.24;99.99
63051;SHT30;49136;47.416;19.402;2023-09-30T02:33:33;10.22;99.99
63051;SHT30;49136;47.416;19.402;2023-09-30T02:36:01;10.19;99.99
63051;SHT30;49136;47.416;19.402;2023-09-30T02:38:26;10.15;99.99
63051;SHT30;49136;47.416;19.402;2023-09-30T02:40:51;10.16;99.99
63051;SHT30;49136;47.416;19.402;2023-09-30T02:43:17;10.18;99.99
63051;SHT30;49136;47.416;19.402;2023-09-30T02:45:42;10.16;99.99
63051;SHT30;49136;47.416;19.402;2023-09-30T02:48:09;10.12;99.99
63051;SHT30;49136;47.416;19.402;2023-09-30T02:50:34;10.09;99.99
63051;SHT30;49136;47.416;19.402;2023-09-30T02:53:00;10.14;99.92
63051;SHT30;49136;47.416;19.402;2023-09-30T02:55:25;10.14;99.99
63051;SHT30;49136;47.416;19.402;2023-09-30T02:57:51;10.15;99.62
63051;SHT30;49136;47.416;19.402;2023-09-30T03:00:16;10.14;99.64
63051;SHT30;49136;47.416;19.402;2023-09-30T03:02:51;10.14;99.68
63051;SHT30;49136;47.416;19.402;2023-09-30T03:05:18;10.21;99.20
63051;SHT30;49136;47.416;19.402;2023-09-30T03:07:44;10.18;98.97
63051;SHT30;49136;47.416;19.402;2023-09-30T03:10:10;10.22;99.06
63051;SHT30;49136;47.416;19.402;2023-09-30T03:12:38;10.24;98.73
63051;SHT30;49136;47.416;19.402;2023-09-30T03:15:04;10.22;98.73
63051;SHT30;49136;47.416;19.402;2023-09-30T03:17:33;10.19;99.22
63051;SHT30;49136;47.416;19.402;2023-09-30T03:19:59;10.22;98.79
63051;SHT30;49136;47.416;19.402;2023-09-30T03:22:26;10.21;99.28
63051;SHT30;49136;47.416;19.402;2023-09-30T03:24:52;10.21;99.31
63051;SHT30;49136;47.416;19.402;2023-09-30T03:27:19;10.21;98.92
63051;SHT30;49136;47.416;19.402;2023-09-30T03:29:45;10.22;99.12
63051;SHT30;49136;47.416;19.402;2023-09-30T03:32:11;10.16;99.18
63051;SHT30;49136;47.416;19.402;2023-09-30T03:34:36;10.16;99.41
63051;SHT30;49136;47.416;19.402;2023-09-30T03:37:02;10.21;98.95
63051;SHT30;49136;47.416;19.402;2023-09-30T03:39:27;10.19;98.98
63051;SHT30;49136;47.416;19.402;2023-09-30T03:41:56;10.22;98.97
63051;SHT30;49136;47.416;19.402;2023-09-30T03:44:23;10.25;99.04
63051;SHT30;49136;47.416;19.402;2023-09-30T03:46:50;10.28;98.84
63051;SHT30;49136;47.416;19.402;2023-09-30T03:49:16;10.25;98.99
63051;SHT30;49136;47.416;19.402;2023-09-30T03:51:41;10.25;99.00
63051;SHT30;49136;47.416;19.402;2023-09-30T03:54:07;10.25;99.14
63051;SHT30;49136;47.416;19.402;2023-09-30T03:56:34;10.22;99.10
63051;SHT30;49136;47.416;19.402;2023-09-30T03:58:59;10.18;99.24
63051;SHT30;49136;47.416;19.402;2023-09-30T04:01:25;10.15;99.44
63051;SHT30;49136;47.416;19.402;2023-09-30T04:03:51;10.08;99.77
63051;SHT30;49136;47.416;19.402;2023-09-30T04:06:20;10.07;99.91
63051;SHT30;49136;47.416;19.402;2023-09-30T04:08:45;10.09;99.90
63051;SHT30;49136;47.416;19.402;2023-09-30T04:11:10;10.12;99.90
63051;SHT30;49136;47.416;19.402;2023-09-30T04:13:42;10.12;99.99
63051;SHT30;49136;47.416;19.402;2023-09-30T04:16:07;10.04;99.99
63051;SHT30;49136;47.416;19.402;2023-09-30T04:18:33;9.99;99.99
63051;SHT30;49136;47.416;19.402;2023-09-30T04:20:58;10.01;99.99
63051;SHT30;49136;47.416;19.402;2023-09-30T04:23:25;9.99;99.99
63051;SHT30;49136;47.416;19.402;2023-09-30T04:25:50;10.02;99.99
63051;SHT30;49136;47.416;19.402;2023-09-30T04:28:16;10.02;99.99
63051;SHT30;49136;47.416;19.402;2023-09-30T04:30:46;10.04;99.99
63051;SHT30;49136;47.416;19.402;2023-09-30T04:33:12;9.98;99.99
63051;SHT30;49136;47.416;19.402;2023-09-30T04:35:38;9.95;99.99
63051;SHT30;49136;47.416;19.402;2023-09-30T04:38:03;9.98;99.99
63051;SHT30;49136;47.416;19.402;2023-09-30T04:40:30;9.98;99.99
63051;SHT30;49136;47.416;19.402;2023-09-30T04:42:55;10.01;99.99
63051;SHT30;49136;47.416;19.402;2023-09-30T04:45:24;10.01;99.99
63051;SHT30;49136;47.416;19.402;2023-09-30T04:47:54;10.04;99.99
63051;SHT30;49136;47.416;19.402;2023-09-30T04:50:21;10.07;99.99
63051;SHT30;49136;47.416;19.402;2023-09-30T04:52:48;10.05;99.99
63051;SHT30;49136;47.416;19.402;2023-09-30T04:55:14;10.11;99.99
63051;SHT30;49136;47.416;19.402;2023-09-30T04:57:42;10.14;99.99
63051;SHT30;49136;47.416;19.402;2023-09-30T05:00:12;10.22;99.99
63051;SHT30;49136;47.416;19.402;2023-09-30T05:02:37;10.28;99.99
63051;SHT30;49136;47.416;19.402;2023-09-30T05:05:03;10.33;99.92
63051;SHT30;49136;47.416;19.402;2023-09-30T05:07:34;10.43;99.92
63051;SHT30;49136;47.416;19.402;2023-09-30T05:10:00;10.49;99.65
63051;SHT30;49136;47.416;19.402;2023-09-30T05:12:25;10.56;99.47
63051;SHT30;49136;47.416;19.402;2023-09-30T05:14:51;10.64;99.15
63051;SHT30;49136;47.416;19.402;2023-09-30T05:17:17;10.73;99.20
63051;SHT30;49136;47.416;19.402;2023-09-30T05:19:43;10.85;99.01
63051;SHT30;49136;47.416;19.402;2023-09-30T05:22:09;10.90;98.84
63051;SHT30;49136;47.416;19.402;2023-09-30T05:24:35;11.02;98.83
63051;SHT30;49136;47.416;19.402;2023-09-30T05:27:00;11.07;98.49
63051;SHT30;49136;47.416;19.402;2023-09-30T05:29:27;11.19;98.38
63051;SHT30;49136;47.416;19.402;2023-09-30T05:31:52;11.30;97.94
63051;SHT30;49136;47.416;19.402;2023-09-30T05:34:18;11.42;97.76
63051;SHT30;49136;47.416;19.402;2023-09-30T05:36:43;11.54;97.70
63051;SHT30;49136;47.416;19.402;2023-09-30T05:39:09;11.68;97.50
63051;SHT30;49136;47.416;19.402;2023-09-30T05:41:36;11.84;97.34
63051;SHT30;49136;47.416;19.402;2023-09-30T05:44:03;11.98;97.22
63051;SHT30;49136;47.416;19.402;2023-09-30T05:46:30;12.16;96.52
63051;SHT30;49136;47.416;19.402;2023-09-30T05:48:56;12.32;96.78
63051;SHT30;49136;47.416;19.402;2023-09-30T05:51:31;12.48;96.35
63051;SHT30;49136;47.416;19.402;2023-09-30T05:53:56;12.69;95.89
63051;SHT30;49136;47.416;19.402;2023-09-30T05:56:25;12.95;95.46
63051;SHT30;49136;47.416;19.402;2023-09-30T05:58:52;13.24;94.54
63051;SHT30;49136;47.416;19.402;2023-09-30T06:01:17;13.55;92.59
63051;SHT30;49136;47.416;19.402;2023-09-30T06:03:47;13.82;93.25
63051;SHT30;49136;47.416;19.402;2023-09-30T06:06:14;14.09;92.63
63051;SHT30;49136;47.416;19.402;2023-09-30T06:08:44;14.31;91.79
63051;SHT30;49136;47.416;19.402;2023-09-30T06:11:20;14.58;91.27
63051;SHT30;49136;47.416;19.402;2023-09-30T06:13:51;14.94;89.92
63051;SHT30;49136;47.416;19.402;2023-09-30T06:16:18;15.24;89.75
63051;SHT30;49136;47.416;19.402;2023-09-30T06:18:48;15.60;87.99
63051;SHT30;49136;47.416;19.402;2023-09-30T06:21:17;15.97;86.82
63051;SHT30;49136;47.416;19.402;2023-09-30T06:23:50;16.36;83.88
63051;SHT30;49136;47.416;19.402;2023-09-30T06:26:18;16.60;84.92
63051;SHT30;49136;47.416;19.402;2023-09-30T06:28:44;16.94;82.84
63051;SHT30;49136;47.416;19.402;2023-09-30T06:31:14;17.32;82.38
63051;SHT30;49136;47.416;19.402;2023-09-30T06:33:41;17.63;82.31
63051;SHT30;49136;47.416;19.402;2023-09-30T06:36:13;17.96;81.00
63051;SHT30;49136;47.416;19.402;2023-09-30T06:38:40;18.30;79.53
63051;SHT30;49136;47.416;19.402;2023-09-30T06:41:08;18.68;79.23
63051;SHT30;49136;47.416;19.402;2023-09-30T06:43:34;19.07;77.94
63051;SHT30;49136;47.416;19.402;2023-09-30T06:46:06;19.43;78.77
63051;SHT30;49136;47.416;19.402;2023-09-30T06:48:35;19.76;76.45
63051;SHT30;49136;47.416;19.402;2023-09-30T06:51:01;20.12;76.27
63051;SHT30;49136;47.416;19.402;2023-09-30T06:53:27;20.41;76.62
63051;SHT30;49136;47.416;19.402;2023-09-30T06:55:53;20.66;73.52
63051;SHT30;49136;47.416;19.402;2023-09-30T06:58:18;20.96;73.01
63051;SHT30;49136;47.416;19.402;2023-09-30T07:00:51;21.31;72.22
63051;SHT30;49136;47.416;19.402;2023-09-30T07:03:17;21.59;71.59
63051;SHT30;49136;47.416;19.402;2023-09-30T07:05:44;21.75;70.51
63051;SHT30;49136;47.416;19.402;2023-09-30T07:08:10;21.94;70.06
63051;SHT30;49136;47.416;19.402;2023-09-30T07:10:35;22.28;69.27
63051;SHT30;49136;47.416;19.402;2023-09-30T07:13:02;22.55;68.30
63051;SHT30;49136;47.416;19.402;2023-09-30T07:15:29;22.69;67.44
63051;SHT30;49136;47.416;19.402;2023-09-30T07:17:54;22.69;67.78
63051;SHT30;49136;47.416;19.402;2023-09-30T07:20:20;22.90;66.64
63051;SHT30;49136;47.416;19.402;2023-09-30T07:22:47;23.00;66.76
63051;SHT30;49136;47.416;19.402;2023-09-30T07:25:13;22.93;67.19
63051;SHT30;49136;47.416;19.402;2023-09-30T07:27:45;22.84;66.82
63051;SHT30;49136;47.416;19.402;2023-09-30T07:30:12;22.62;67.11
63051;SHT30;49136;47.416;19.402;2023-09-30T07:32:41;22.42;68.64
63051;SHT30;49136;47.416;19.402;2023-09-30T07:35:07;22.39;67.90
63051;SHT30;49136;47.416;19.402;2023-09-30T07:37:33;22.29;68.01
63051;SHT30;49136;47.416;19.402;2023-09-30T07:39:58;22.20;68.55
63051;SHT30;49136;47.416;19.402;2023-09-30T07:42:24;22.01;71.23
63051;SHT30;49136;47.416;19.402;2023-09-30T07:44:50;21.92;70.61
63051;SHT30;49136;47.416;19.402;2023-09-30T07:47:16;21.82;71.72
63051;SHT30;49136;47.416;19.402;2023-09-30T07:49:41;21.73;72.13
63051;SHT30;49136;47.416;19.402;2023-09-30T07:52:06;21.56;71.02
63051;SHT30;49136;47.416;19.402;2023-09-30T07:54:32;21.65;71.78
63051;SHT30;49136;47.416;19.402;2023-09-30T07:56:58;21.63;71.78
63051;SHT30;49136;47.416;19.402;2023-09-30T07:59:24;21.72;71.13
63051;SHT30;49136;47.416;19.402;2023-09-30T08:01:50;21.75;70.34
63051;SHT30;49136;47.416;19.402;2023-09-30T08:04:18;21.75;69.61
63051;SHT30;49136;47.416;19.402;2023-09-30T08:06:44;21.77;69.56
63051;SHT30;49136;47.416;19.402;2023-09-30T08:09:11;21.72;69.66
63051;SHT30;49136;47.416;19.402;2023-09-30T08:11:38;21.69;69.84
63051;SHT30;49136;47.416;19.402;2023-09-30T08:14:04;21.63;69.78
63051;SHT30;49136;47.416;19.402;2023-09-30T08:16:33;21.56;70.53
63051;SHT30;49136;47.416;19.402;2023-09-30T08:18:58;21.53;69.94
63051;SHT30;49136;47.416;19.402;2023-09-30T08:21:24;21.51;70.59
63051;SHT30;49136;47.416;19.402;2023-09-30T08:23:49;21.48;70.43
63051;SHT30;49136;47.416;19.402;2023-09-30T08:26:15;21.45;70.23
63051;SHT30;49136;47.416;19.402;2023-09-30T08:28:40;21.39;71.23
63051;SHT30;49136;47.416;19.402;2023-09-30T08:31:06;21.41;71.71
63051;SHT30;49136;47.416;19.402;2023-09-30T08:33:32;21.49;71.35
63051;SHT30;49136;47.416;19.402;2023-09-30T08:36:04;21.56;72.34
63051;SHT30;49136;47.416;19.402;2023-09-30T08:38:38;21.82;70.88
63051;SHT30;49136;47.416;19.402;2023-09-30T08:41:05;22.18;70.76
63051;SHT30;49136;47.416;19.402;2023-09-30T08:43:30;22.56;69.91
63051;SHT30;49136;47.416;19.402;2023-09-30T08:45:58;22.73;68.65
63051;SHT30;49136;47.416;19.402;2023-09-30T08:48:26;22.98;68.03
63051;SHT30;49136;47.416;19.402;2023-09-30T08:50:53;23.22;67.25
63051;SHT30;49136;47.416;19.402;2023-09-30T08:53:20;23.47;67.82
63051;SHT30;49136;47.416;19.402;2023-09-30T08:55:46;23.60;67.78
63051;SHT30;49136;47.416;19.402;2023-09-30T08:58:13;23.81;65.80
63051;SHT30;49136;47.416;19.402;2023-09-30T09:00:39;24.00;64.93
63051;SHT30;49136;47.416;19.402;2023-09-30T09:03:07;24.21;64.57
63051;SHT30;49136;47.416;19.402;2023-09-30T09:05:32;24.47;63.80
63051;SHT30;49136;47.416;19.402;2023-09-30T09:08:01;24.52;63.43
63051;SHT30;49136;47.416;19.402;2023-09-30T09:10:29;24.67;62.95
63051;SHT30;49136;47.416;19.402;2023-09-30T09:12:57;24.67;62.73
63051;SHT30;49136;47.416;19.402;2023-09-30T09:15:27;24.60;63.04
63051;SHT30;49136;47.416;19.402;2023-09-30T09:17:54;24.40;63.20
63051;SHT30;49136;47.416;19.402;2023-09-30T09:20:24;24.28;62.79
63051;SHT30;49136;47.416;19.402;2023-09-30T09:22:54;24.39;63.47
63051;SHT30;49136;47.416;19.402;2023-09-30T09:25:22;24.60;63.47
63051;SHT30;49136;47.416;19.402;2023-09-30T09:27:53;24.94;63.65
63051;SHT30;49136;47.416;19.402;2023-09-30T09:30:25;25.08;61.91
63051;SHT30;49136;47.416;19.402;2023-09-30T09:32:53;25.36;60.75
63051;SHT30;49136;47.416;19.402;2023-09-30T09:35:20;25.53;61.62
63051;SHT30;49136;47.416;19.402;2023-09-30T09:38:15;25.85;59.95
63051;SHT30;49136;47.416;19.402;2023-09-30T09:40:41;25.32;60.79
63051;SHT30;49136;47.416;19.402;2023-09-30T09:43:06;25.50;61.38
63051;SHT30;49136;47.416;19.402;2023-09-30T09:45:34;25.43;60.93
63051;SHT30;49136;47.416;19.402;2023-09-30T09:48:00;25.37;60.83
63051;SHT30;49136;47.416;19.402;2023-09-30T09:50:26;25.25;61.81
63051;SHT30;49136;47.416;19.402;2023-09-30T09:52:52;25.19;61.38
63051;SHT30;49136;47.416;19.402;2023-09-30T09:55:22;24.92;62.74
63051;SHT30;49136;47.416;19.402;2023-09-30T09:57:47;24.84;61.96
63051;SHT30;49136;47.416;19.402;2023-09-30T10:00:25;24.81;62.78
63051;SHT30;49136;47.416;19.402;2023-09-30T10:02:51;24.82;62.16
63051;SHT30;49136;47.416;19.402;2023-09-30T10:05:19;24.60;62.97
63051;SHT30;49136;47.416;19.402;2023-09-30T10:07:59;24.66;63.74
63051;SHT30;49136;47.416;19.402;2023-09-30T10:10:25;25.50;61.89
63051;SHT30;49136;47.416;19.402;2023-09-30T10:12:51;25.77;62.22
63051;SHT30;49136;47.416;19.402;2023-09-30T10:18:10;24.96;62.03
63051;SHT30;49136;47.416;19.402;2023-09-30T10:20:38;24.94;62.50
63051;SHT30;49136;47.416;19.402;2023-09-30T10:23:27;24.99;61.57
63051;SHT30;49136;47.416;19.402;2023-09-30T10:28:43;24.84;62.07
63051;SHT30;49136;47.416;19.402;2023-09-30T10:36:47;24.81;62.38
63051;SHT30;49136;47.416;19.402;2023-09-30T10:39:54;24.67;63.34
63051;SHT30;49136;47.416;19.402;2023-09-30T10:42:48;24.55;63.19
63051;SHT30;49136;47.416;19.402;2023-09-30T10:51:18;24.19;63.73
63051;SHT30;49136;47.416;19.402;2023-09-30T10:53:50;24.15;64.34
63051;SHT30;49136;47.416;19.402;2023-09-30T10:56:22;24.04;64.46
63051;SHT30;49136;47.416;19.402;2023-09-30T10:58:52;24.04;64.04
63051;SHT30;49136;47.416;19.402;2023-09-30T11:01:19;23.96;64.98
63051;SHT30;49136;47.416;19.402;2023-09-30T11:03:45;23.94;66.65
63051;SHT30;49136;47.416;19.402;2023-09-30T11:06:12;24.02;64.90
63051;SHT30;49136;47.416;19.402;2023-09-30T11:08:50;24.04;66.67
63051;SHT30;49136;47.416;19.402;2023-09-30T11:11:16;24.06;65.29
63051;SHT30;49136;47.416;19.402;2023-09-30T11:13:41;24.12;68.09
63051;SHT30;49136;47.416;19.402;2023-09-30T11:16:07;24.15;66.69
63051;SHT30;49136;47.416;19.402;2023-09-30T11:18:34;24.18;65.24
63051;SHT30;49136;47.416;19.402;2023-09-30T11:21:11;24.14;65.86
63051;SHT30;49136;47.416;19.402;2023-09-30T11:23:39;24.15;66.43
63051;SHT30;49136;47.416;19.402;2023-09-30T11:26:06;24.08;66.41
63051;SHT30;49136;47.416;19.402;2023-09-30T11:28:39;23.43;67.32
63051;SHT30;49136;47.416;19.402;2023-09-30T11:31:08;23.47;67.40
63051;SHT30;49136;47.416;19.402;2023-09-30T11:33:47;23.60;66.07
63051;SHT30;49136;47.416;19.402;2023-09-30T11:36:15;23.59;67.89
63051;SHT30;49136;47.416;19.402;2023-09-30T11:38:46;23.53;68.08
63051;SHT30;49136;47.416;19.402;2023-09-30T11:41:13;23.50;68.36
63051;SHT30;49136;47.416;19.402;2023-09-30T11:43:58;23.47;68.44
63051;SHT30;49136;47.416;19.402;2023-09-30T11:46:25;23.29;68.36
63051;SHT30;49136;47.416;19.402;2023-09-30T11:48:57;23.23;69.49
63051;SHT30;49136;47.416;19.402;2023-09-30T11:51:23;22.93;68.45
63051;SHT30;49136;47.416;19.402;2023-09-30T11:53:53;22.93;69.01
63051;SHT30;49136;47.416;19.402;2023-09-30T11:56:20;22.96;69.13
63051;SHT30;49136;47.416;19.402;2023-09-30T11:58:47;22.96;69.71
63051;SHT30;49136;47.416;19.402;2023-09-30T12:01:14;22.98;68.96
63051;SHT30;49136;47.416;19.402;2023-09-30T12:03:39;22.93;68.87
63051;SHT30;49136;47.416;19.402;2023-09-30T12:06:08;22.76;70.17
63051;SHT30;49136;47.416;19.402;2023-09-30T12:08:39;22.83;70.93
63051;SHT30;49136;47.416;19.402;2023-09-30T12:11:05;22.86;70.20
63051;SHT30;49136;47.416;19.402;2023-09-30T12:13:31;22.73;69.28
63051;SHT30;49136;47.416;19.402;2023-09-30T12:15:56;22.77;69.63
63051;SHT30;49136;47.416;19.402;2023-09-30T12:18:22;22.59;70.04
63051;SHT30;49136;47.416;19.402;2023-09-30T12:20:52;22.60;70.68
63051;SHT30;49136;47.416;19.402;2023-09-30T12:23:18;22.73;69.92
63051;SHT30;49136;47.416;19.402;2023-09-30T12:25:45;22.79;70.31
63051;SHT30;49136;47.416;19.402;2023-09-30T12:28:11;22.76;71.00
63051;SHT30;49136;47.416;19.402;2023-09-30T12:30:36;22.76;70.95
63051;SHT30;49136;47.416;19.402;2023-09-30T12:33:02;22.76;70.84
63051;SHT30;49136;47.416;19.402;2023-09-30T12:35:27;22.73;70.78
63051;SHT30;49136;47.416;19.402;2023-09-30T12:37:53;22.63;71.85
63051;SHT30;49136;47.416;19.402;2023-09-30T12:40:19;22.48;72.44
63051;SHT30;49136;47.416;19.402;2023-09-30T12:42:45;22.42;72.08
63051;SHT30;49136;47.416;19.402;2023-09-30T12:45:11;22.15;73.62
63051;SHT30;49136;47.416;19.402;2023-09-30T12:47:37;22.10;72.49
63051;SHT30;49136;47.416;19.402;2023-09-30T12:50:04;22.03;72.92
63051;SHT30;49136;47.416;19.402;2023-09-30T12:52:29;21.98;73.41
63051;SHT30;49136;47.416;19.402;2023-09-30T12:54:55;21.85;74.51
63051;SHT30;49136;47.416;19.402;2023-09-30T12:57:21;21.70;74.48
63051;SHT30;49136;47.416;19.402;2023-09-30T12:59:47;21.46;74.97
63051;SHT30;49136;47.416;19.402;2023-09-30T13:02:14;21.35;74.55
63051;SHT30;49136;47.416;19.402;2023-09-30T13:04:41;21.32;75.32
63051;SHT30;49136;47.416;19.402;2023-09-30T13:07:09;21.20;75.63
63051;SHT30;49136;47.416;19.402;2023-09-30T13:09:41;21.12;75.92
63051;SHT30;49136;47.416;19.402;2023-09-30T13:12:07;21.04;76.36
63051;SHT30;49136;47.416;19.402;2023-09-30T13:14:32;20.85;76.84
63051;SHT30;49136;47.416;19.402;2023-09-30T13:16:58;20.64;78.05
63051;SHT30;49136;47.416;19.402;2023-09-30T13:19:23;20.55;77.25
63051;SHT30;49136;47.416;19.402;2023-09-30T13:21:50;20.55;77.68
63051;SHT30;49136;47.416;19.402;2023-09-30T13:24:16;20.55;78.57
63051;SHT30;49136;47.416;19.402;2023-09-30T13:26:41;20.68;77.14
63051;SHT30;49136;47.416;19.402;2023-09-30T13:29:07;20.80;77.11
63051;SHT30;49136;47.416;19.402;2023-09-30T13:31:35;20.77;77.81
63051;SHT30;49136;47.416;19.402;2023-09-30T13:34:03;20.77;78.70
63051;SHT30;49136;47.416;19.402;2023-09-30T13:36:29;20.73;79.44
63051;SHT30;49136;47.416;19.402;2023-09-30T13:38:54;20.64;78.54
63051;SHT30;49136;47.416;19.402;2023-09-30T13:41:19;20.62;78.56
63051;SHT30;49136;47.416;19.402;2023-09-30T13:43:45;20.55;79.06
63051;SHT30;49136;47.416;19.402;2023-09-30T13:46:10;20.64;78.19
63051;SHT30;49136;47.416;19.402;2023-09-30T13:48:37;20.56;79.00
63051;SHT30;49136;47.416;19.402;2023-09-30T13:51:04;20.64;78.57
63051;SHT30;49136;47.416;19.402;2023-09-30T13:53:30;20.64;78.28
63051;SHT30;49136;47.416;19.402;2023-09-30T13:55:56;20.71;78.27
63051;SHT30;49136;47.416;19.402;2023-09-30T13:58:21;20.77;78.83
63051;SHT30;49136;47.416;19.402;2023-09-30T14:00:47;20.73;78.68
63051;SHT30;49136;47.416;19.402;2023-09-30T14:03:20;20.77;78.87
63051;SHT30;49136;47.416;19.402;2023-09-30T14:05:46;20.80;78.68
63051;SHT30;49136;47.416;19.402;2023-09-30T14:08:12;20.85;78.79
63051;SHT30;49136;47.416;19.402;2023-09-30T14:10:38;20.93;78.57
63051;SHT30;49136;47.416;19.402;2023-09-30T14:13:03;20.87;79.31
63051;SHT30;49136;47.416;19.402;2023-09-30T14:15:29;20.85;79.03
63051;SHT30;49136;47.416;19.402;2023-09-30T14:17:56;21.03;77.74
63051;SHT30;49136;47.416;19.402;2023-09-30T14:20:23;21.20;76.90
63051;SHT30;49136;47.416;19.402;2023-09-30T14:22:48;21.58;76.97
63051;SHT30;49136;47.416;19.402;2023-09-30T14:25:13;21.92;75.67
63051;SHT30;49136;47.416;19.402;2023-09-30T14:27:39;22.20;75.68
63051;SHT30;49136;47.416;19.402;2023-09-30T14:30:06;22.32;73.11
63051;SHT30;49136;47.416;19.402;2023-09-30T14:32:32;22.49;72.53
63051;SHT30;49136;47.416;19.402;2023-09-30T14:34:57;22.22;72.28
63051;SHT30;49136;47.416;19.402;2023-09-30T14:37:23;22.25;72.30
63051;SHT30;49136;47.416;19.402;2023-09-30T14:39:49;22.25;72.96
63051;SHT30;49136;47.416;19.402;2023-09-30T14:42:14;22.25;73.01
63051;SHT30;49136;47.416;19.402;2023-09-30T14:44:40;22.17;73.23
63051;SHT30;49136;47.416;19.402;2023-09-30T14:47:06;22.05;73.29
63051;SHT30;49136;47.416;19.402;2023-09-30T14:49:32;21.98;73.55
63051;SHT30;49136;47.416;19.402;2023-09-30T14:51:58;21.96;73.95
63051;SHT30;49136;47.416;19.402;2023-09-30T14:54:24;22.05;74.13
63051;SHT30;49136;47.416;19.402;2023-09-30T14:56:49;21.98;74.64
63051;SHT30;49136;47.416;19.402;2023-09-30T14:59:14;22.00;74.98
63051;SHT30;49136;47.416;19.402;2023-09-30T15:01:40;22.05;75.31
63051;SHT30;49136;47.416;19.402;2023-09-30T15:04:05;22.00;75.47
63051;SHT30;49136;47.416;19.402;2023-09-30T15:06:33;21.94;75.06
63051;SHT30;49136;47.416;19.402;2023-09-30T15:09:02;21.96;75.38
63051;SHT30;49136;47.416;19.402;2023-09-30T15:11:37;21.98;77.13
63051;SHT30;49136;47.416;19.402;2023-09-30T15:14:02;21.83;77.59
63051;SHT30;49136;47.416;19.402;2023-09-30T15:16:30;21.72;77.65
63051;SHT30;49136;47.416;19.402;2023-09-30T15:18:56;21.62;76.92
63051;SHT30;49136;47.416;19.402;2023-09-30T15:21:21;21.62;77.42
63051;SHT30;49136;47.416;19.402;2023-09-30T15:23:47;21.66;76.69
63051;SHT30;49136;47.416;19.402;2023-09-30T15:26:12;21.67;76.38
63051;SHT30;49136;47.416;19.402;2023-09-30T15:28:38;21.66;77.09
63051;SHT30;49136;47.416;19.402;2023-09-30T15:31:03;21.58;77.32
63051;SHT30;49136;47.416;19.402;2023-09-30T15:33:29;21.56;78.02
63051;SHT30;49136;47.416;19.402;2023-09-30T15:35:55;21.44;79.09